KBKV

Brooksville-Tampa Bay Regional Airport

Brooksville, Florida, USA
METAR KBKV 212253Z 28009KT 10SM CLR 29/23 A3007 RMK AO2 LTG DSNT SE SLP181 T02940228
Observed Flight Rules
Aug-21 @ 22:53 UTC (55 minutes ago) Visual Flight Rules
Wind Visibility Clouds
280° at 9 knots 10 miles
  • Clear skies
Temperatures Readings
Current 29°C / 84°F
Dewpoint 23°C / 73°F
Humidity 70%
Altimeter 30.07" Hg
Pressure 1018.1 hPa
Elevation 20
METAR KBKV 212253Z 28009KT 10SM CLR 29/23 A3007 RMK AO2 LTG DSNT SE SLP181 T02940228
Observed Flight Rules
Aug-21 @ 22:53 UTC
(55 minutes ago)
VFR
Wind Visibility
280° at 9 knots 10 miles
Clouds
  • Clear skies
Temperature Dewpoint
29°C / 84°F 23°C / 73°F
Humidity Altimeter Pressure
70% 30.07" Hg 1018.1 hPa